Time;durP1;ratioP1;P1;durP2;ratioP2;P2;SDS_P1;SDS_P2;PMS_P1;PMS_P2;Temp;Humidity;BMP_temperature;BMP_pressure;BME280_temperature;BME280_humidity;BME280_pressure;Samples;Min_cycle;Max_cycle;Signal;HPM_P1;HPM_P2
2023/06/07 00:02:27;;;;;;;3.15;2.10;;;;;;;;;;5032200;28;20239;-96
2023/06/07 00:04:54;;;;;;;2.15;1.83;;;;;;;;;;5032499;28;20212;-95
2023/06/07 00:07:22;;;;;;;1.88;1.77;;;;;;;;;;5028678;28;20232;-96
2023/06/07 00:09:49;;;;;;;3.63;2.00;;;;;;;;;;5038482;28;20240;-96
2023/06/07 00:12:19;;;;;;;2.10;2.00;;;;;;;;;;5035412;28;20212;-96
2023/06/07 00:14:46;;;;;;;2.53;2.22;;;;;;;;;;5033581;28;20208;-96
2023/06/07 00:17:15;;;;;;;3.22;2.03;;;;;;;;;;5035771;28;20224;-95
2023/06/07 00:19:42;;;;;;;2.00;1.80;;;;;;;;;;5036378;28;20203;-96
2023/06/07 00:22:12;;;;;;;2.20;1.90;;;;;;;;;;5038264;28;20212;-95
2023/06/07 00:24:40;;;;;;;2.25;2.05;;;;;;;;;;5036672;28;20212;-95
2023/06/07 00:27:07;;;;;;;2.13;1.98;;;;;;;;;;5032518;28;20200;-95
2023/06/07 00:29:36;;;;;;;2.10;1.90;;;;;;;;;;5038855;28;20208;-95
2023/06/07 00:32:04;;;;;;;2.55;2.00;;;;;;;;;;5035125;28;20212;-95
2023/06/07 00:34:31;;;;;;;2.38;1.70;;;;;;;;;;5031253;28;20269;-95
2023/06/07 00:36:58;;;;;;;2.80;2.30;;;;;;;;;;5027525;28;20231;-95
2023/06/07 00:39:26;;;;;;;2.10;1.90;;;;;;;;;;5031593;28;20235;-95
2023/06/07 00:41:54;;;;;;;2.30;2.10;;;;;;;;;;5026425;28;20259;-96
2023/06/07 00:44:21;;;;;;;2.75;1.92;;;;;;;;;;5028857;28;20204;-95
2023/06/07 00:46:52;;;;;;;2.25;1.83;;;;;;;;;;5027902;28;20197;-96
2023/06/07 00:49:20;;;;;;;2.70;1.98;;;;;;;;;;5029438;28;20196;-96
2023/06/07 00:51:48;;;;;;;1.80;1.70;;;;;;;;;;5030316;28;20204;-95
2023/06/07 00:54:17;;;;;;;2.08;1.92;;;;;;;;;;5027782;28;20207;-95
2023/06/07 00:56:45;;;;;;;2.65;1.90;;;;;;;;;;5026230;28;20251;-95
2023/06/07 00:59:13;;;;;;;2.22;1.83;;;;;;;;;;5029635;28;20270;-96
2023/06/07 01:01:41;;;;;;;2.33;1.90;;;;;;;;;;5027138;28;20208;-87
2023/06/07 01:04:10;;;;;;;2.75;1.90;;;;;;;;;;5026194;28;20216;-87
2023/06/07 01:06:38;;;;;;;3.33;1.80;;;;;;;;;;5023804;28;20276;-87
2023/06/07 01:09:06;;;;;;;2.00;1.90;;;;;;;;;;5033807;28;20238;-87
2023/06/07 01:11:34;;;;;;;2.15;1.95;;;;;;;;;;5028766;28;20227;-87
2023/06/07 01:14:02;;;;;;;2.20;2.00;;;;;;;;;;5028772;28;20208;-87
2023/06/07 01:16:29;;;;;;;2.30;1.90;;;;;;;;;;5023926;28;20232;-87
2023/06/07 01:18:57;;;;;;;4.72;2.17;;;;;;;;;;5025320;28;20271;-87
2023/06/07 01:21:26;;;;;;;3.67;2.05;;;;;;;;;;5029023;28;20258;-87
2023/06/07 01:23:56;;;;;;;3.40;2.10;;;;;;;;;;5028116;28;20288;-87
2023/06/07 01:26:26;;;;;;;2.25;1.90;;;;;;;;;;5027008;28;20219;-87
2023/06/07 01:28:54;;;;;;;2.10;1.92;;;;;;;;;;5033931;28;20230;-87
2023/06/07 01:31:23;;;;;;;2.05;1.90;;;;;;;;;;5024037;28;20327;-87
2023/06/07 01:33:50;;;;;;;2.80;1.90;;;;;;;;;;5025822;28;20299;-88
2023/06/07 01:36:18;;;;;;;1.95;1.80;;;;;;;;;;5027566;28;20330;-87
2023/06/07 01:38:46;;;;;;;2.20;1.98;;;;;;;;;;5026289;28;20331;-87
2023/06/07 01:41:14;;;;;;;2.22;2.00;;;;;;;;;;5024928;28;20264;-87
2023/06/07 01:43:42;;;;;;;2.40;2.20;;;;;;;;;;5026712;28;20258;-88
2023/06/07 01:46:10;;;;;;;3.53;2.00;;;;;;;;;;5025661;28;20265;-87
2023/06/07 01:48:37;;;;;;;2.28;2.00;;;;;;;;;;5028032;28;20200;-87
2023/06/07 01:51:04;;;;;;;2.90;2.10;;;;;;;;;;5024452;28;20259;-87
2023/06/07 01:53:32;;;;;;;2.10;2.00;;;;;;;;;;5027470;28;20219;-87
2023/06/07 01:56:01;;;;;;;2.20;2.05;;;;;;;;;;5028809;28;20208;-87
2023/06/07 01:58:33;;;;;;;2.17;1.95;;;;;;;;;;5028306;28;20321;-87
2023/06/07 02:01:05;;;;;;;2.20;2.10;;;;;;;;;;5024818;28;20204;-87
2023/06/07 02:03:35;;;;;;;3.38;2.33;;;;;;;;;;5033629;28;20262;-87
2023/06/07 02:06:03;;;;;;;3.40;1.85;;;;;;;;;;5032011;28;20219;-87
2023/06/07 02:08:32;;;;;;;3.00;2.13;;;;;;;;;;5024227;28;20244;-87
2023/06/07 02:11:00;;;;;;;2.22;2.03;;;;;;;;;;5027383;28;20212;-87
2023/06/07 02:13:28;;;;;;;2.30;2.10;;;;;;;;;;5024445;28;20293;-88
2023/06/07 02:15:57;;;;;;;2.30;2.10;;;;;;;;;;5027783;28;20263;-88
2023/06/07 02:18:25;;;;;;;2.15;1.95;;;;;;;;;;5033098;28;20311;-87
2023/06/07 02:20:52;;;;;;;2.58;2.38;;;;;;;;;;5023316;28;20304;-87
2023/06/07 02:23:21;;;;;;;3.92;2.10;;;;;;;;;;5028944;28;20299;-87
2023/06/07 02:25:48;;;;;;;2.20;2.00;;;;;;;;;;5022066;28;20271;-87
2023/06/07 02:28:15;;;;;;;2.25;1.90;;;;;;;;;;5026377;28;20307;-87
2023/06/07 02:30:43;;;;;;;2.22;2.03;;;;;;;;;;5027652;28;20240;-87
2023/06/07 02:33:13;;;;;;;1.90;1.80;;;;;;;;;;5023153;28;20212;-87
2023/06/07 02:35:41;;;;;;;2.08;1.88;;;;;;;;;;5029750;28;20214;-87
2023/06/07 02:38:08;;;;;;;3.13;1.92;;;;;;;;;;5031596;28;20235;-87
2023/06/07 02:40:36;;;;;;;2.47;2.17;;;;;;;;;;5032033;28;20239;-86
2023/06/07 02:43:03;;;;;;;3.35;2.10;;;;;;;;;;5025609;28;20204;-88
2023/06/07 02:45:31;;;;;;;4.53;2.17;;;;;;;;;;5025773;28;20204;-87
2023/06/07 02:47:58;;;;;;;2.05;1.90;;;;;;;;;;5026709;28;20210;-87
2023/06/07 02:50:27;;;;;;;3.08;1.92;;;;;;;;;;5026309;28;20240;-87
2023/06/07 02:52:55;;;;;;;2.10;1.90;;;;;;;;;;5034092;28;20215;-87
2023/06/07 02:55:22;;;;;;;2.38;2.17;;;;;;;;;;5026970;28;20208;-87
2023/06/07 02:57:50;;;;;;;2.38;2.17;;;;;;;;;;5026560;28;20220;-87
2023/06/07 03:00:18;;;;;;;2.75;2.22;;;;;;;;;;5023227;28;20221;-87
2023/06/07 03:02:45;;;;;;;2.25;2.13;;;;;;;;;;5020373;28;20203;-87
2023/06/07 03:05:13;;;;;;;2.88;2.13;;;;;;;;;;5022321;28;20270;-87
2023/06/07 03:07:42;;;;;;;2.22;2.10;;;;;;;;;;5020843;28;20251;-87
2023/06/07 03:10:10;;;;;;;4.40;1.90;;;;;;;;;;5031081;28;20215;-88
2023/06/07 03:12:37;;;;;;;2.38;2.17;;;;;;;;;;5023961;28;20212;-88
2023/06/07 03:15:05;;;;;;;2.30;2.10;;;;;;;;;;5023242;28;20204;-87
2023/06/07 03:17:32;;;;;;;2.20;1.95;;;;;;;;;;5023371;28;20228;-87
2023/06/07 03:20:00;;;;;;;3.85;2.00;;;;;;;;;;5026586;28;20205;-87
2023/06/07 03:22:28;;;;;;;2.22;2.05;;;;;;;;;;5025332;28;20215;-88
2023/06/07 03:24:57;;;;;;;2.20;2.00;;;;;;;;;;5023684;28;20215;-87
2023/06/07 03:27:24;;;;;;;2.15;1.95;;;;;;;;;;5023002;28;20280;-87
2023/06/07 03:29:52;;;;;;;3.75;2.00;;;;;;;;;;5027778;28;20208;-87
2023/06/07 03:32:19;;;;;;;2.47;2.28;;;;;;;;;;5023333;28;20242;-88
2023/06/07 03:34:46;;;;;;;2.08;1.95;;;;;;;;;;5022120;28;20212;-87
2023/06/07 03:37:14;;;;;;;2.90;2.20;;;;;;;;;;5027599;28;20208;-87
2023/06/07 03:39:41;;;;;;;2.40;2.20;;;;;;;;;;5030299;28;20303;-87
2023/06/07 03:42:10;;;;;;;2.35;2.03;;;;;;;;;;5021377;28;20215;-87
2023/06/07 03:44:37;;;;;;;2.40;2.20;;;;;;;;;;5022405;28;20204;-87
2023/06/07 03:47:05;;;;;;;2.80;2.35;;;;;;;;;;5019399;28;20203;-87
2023/06/07 03:49:32;;;;;;;5.10;2.30;;;;;;;;;;5028769;28;20274;-87
2023/06/07 03:51:59;;;;;;;2.53;2.28;;;;;;;;;;5026119;28;20307;-87
2023/06/07 03:54:27;;;;;;;3.03;2.30;;;;;;;;;;5029045;28;20233;-87
2023/06/07 03:56:56;;;;;;;2.25;2.08;;;;;;;;;;5024526;28;20228;-87
2023/06/07 03:59:26;;;;;;;2.35;2.15;;;;;;;;;;5027672;28;20285;-87
2023/06/07 04:01:54;;;;;;;2.30;2.10;;;;;;;;;;5025749;28;20258;-87
2023/06/07 04:04:21;;;;;;;2.45;2.25;;;;;;;;;;5036094;28;20222;-87
2023/06/07 04:06:49;;;;;;;6.57;2.47;;;;;;;;;;5032421;28;20212;-87
2023/06/07 04:09:19;;;;;;;2.45;2.20;;;;;;;;;;5028463;28;20235;-87
2023/06/07 04:11:46;;;;;;;2.50;2.30;;;;;;;;;;5039612;28;20222;-87
2023/06/07 04:14:13;;;;;;;2.35;2.15;;;;;;;;;;5040788;28;20254;-87
2023/06/07 04:16:42;;;;;;;4.88;2.15;;;;;;;;;;5037003;28;20277;-87
2023/06/07 04:19:09;;;;;;;4.22;2.38;;;;;;;;;;5036535;28;20239;-87
2023/06/07 04:21:37;;;;;;;2.63;2.40;;;;;;;;;;5042259;28;20266;-87
2023/06/07 04:24:04;;;;;;;3.33;2.47;;;;;;;;;;5036737;28;20262;-87
2023/06/07 04:26:32;;;;;;;2.60;2.38;;;;;;;;;;5033166;28;20212;-87
2023/06/07 04:28:59;;;;;;;2.80;2.20;;;;;;;;;;5036305;28;20318;-88
2023/06/07 04:31:29;;;;;;;2.30;2.10;;;;;;;;;;5034456;28;20212;-87
2023/06/07 04:34:01;;;;;;;2.40;2.30;;;;;;;;;;5025039;28;20249;-96
2023/06/07 04:36:29;;;;;;;3.45;2.42;;;;;;;;;;5035056;28;20230;-96
2023/06/07 04:38:56;;;;;;;2.30;2.20;;;;;;;;;;5027802;28;20226;-95
2023/06/07 04:41:30;;;;;;;2.40;2.20;;;;;;;;;;5027384;28;20208;-95
2023/06/07 04:43:58;;;;;;;2.40;2.20;;;;;;;;;;5031632;28;20204;-95
2023/06/07 04:46:27;;;;;;;2.70;2.50;;;;;;;;;;5025096;28;20216;-95
2023/06/07 04:48:55;;;;;;;2.50;2.30;;;;;;;;;;5027744;28;20509;-95
2023/06/07 04:51:25;;;;;;;3.08;1.90;;;;;;;;;;5025870;28;20204;-95
2023/06/07 04:53:58;;;;;;;2.00;1.90;;;;;;;;;;5024058;28;20204;-95
2023/06/07 04:56:26;;;;;;;2.20;1.95;;;;;;;;;;5026268;28;20216;-95
2023/06/07 04:58:55;;;;;;;2.20;2.00;;;;;;;;;;5025025;28;20212;-95
2023/06/07 05:01:22;;;;;;;2.72;2.30;;;;;;;;;;5028141;28;20207;-95
2023/06/07 05:03:50;;;;;;;3.22;2.10;;;;;;;;;;5023489;28;20275;-95
2023/06/07 05:06:18;;;;;;;2.42;2.10;;;;;;;;;;5024602;28;20231;-95
2023/06/07 05:08:47;;;;;;;2.45;2.25;;;;;;;;;;5024345;28;20285;-95
2023/06/07 05:11:15;;;;;;;2.55;2.35;;;;;;;;;;5025500;28;20315;-95
2023/06/07 05:13:42;;;;;;;3.70;2.72;;;;;;;;;;5022227;28;20236;-96
2023/06/07 05:16:16;;;;;;;2.67;2.47;;;;;;;;;;5028067;28;20207;-95
2023/06/07 05:18:46;;;;;;;2.95;2.55;;;;;;;;;;5025438;28;20227;-96
2023/06/07 05:21:14;;;;;;;2.40;2.20;;;;;;;;;;5031302;28;20230;-95
2023/06/07 05:26:59;;;;;;;2.10;2.00;;;;;;;;;;5010162;28;20208;-95
2023/06/07 05:29:28;;;;;;;2.17;1.98;;;;;;;;;;5029625;28;20260;-96
2023/06/07 05:31:56;;;;;;;2.28;2.08;;;;;;;;;;5029679;28;20208;-96
2023/06/07 05:34:23;;;;;;;2.25;2.05;;;;;;;;;;5027581;28;20216;-96
2023/06/07 05:36:51;;;;;;;3.15;2.20;;;;;;;;;;5036774;28;20287;-95
2023/06/07 05:39:18;;;;;;;2.00;1.90;;;;;;;;;;5040621;28;20223;-95
2023/06/07 05:41:46;;;;;;;2.92;2.13;;;;;;;;;;5032318;28;20216;-95
2023/06/07 05:44:14;;;;;;;2.63;2.13;;;;;;;;;;5030888;28;20258;-95
2023/06/07 05:46:42;;;;;;;2.60;2.40;;;;;;;;;;5031085;28;20208;-95
2023/06/07 05:49:09;;;;;;;2.47;2.13;;;;;;;;;;5027174;28;20202;-95
2023/06/07 05:51:37;;;;;;;2.30;2.10;;;;;;;;;;5029763;28;20212;-95
2023/06/07 05:54:06;;;;;;;2.70;2.50;;;;;;;;;;5038749;28;20211;-95
2023/06/07 05:56:34;;;;;;;2.35;2.00;;;;;;;;;;5031210;28;20208;-96
2023/06/07 05:59:02;;;;;;;2.53;2.00;;;;;;;;;;5035441;28;20254;-95
2023/06/07 06:01:31;;;;;;;2.38;2.17;;;;;;;;;;5029189;28;20244;-95
2023/06/07 06:03:58;;;;;;;2.40;2.20;;;;;;;;;;5029694;28;20239;-96
2023/06/07 06:06:25;;;;;;;4.05;2.33;;;;;;;;;;5030251;28;20239;-95
2023/06/07 06:08:53;;;;;;;2.97;2.50;;;;;;;;;;5032941;28;20278;-95
2023/06/07 06:11:20;;;;;;;5.88;2.45;;;;;;;;;;5029454;28;20242;-95
2023/06/07 06:13:48;;;;;;;2.70;2.50;;;;;;;;;;5032983;28;20200;-95
2023/06/07 06:16:16;;;;;;;2.10;2.00;;;;;;;;;;5029298;28;20211;-96
2023/06/07 06:18:45;;;;;;;3.22;2.22;;;;;;;;;;5030832;28;20253;-95
2023/06/07 06:21:12;;;;;;;4.00;2.35;;;;;;;;;;5031604;28;20204;-95
2023/06/07 06:23:41;;;;;;;2.60;2.20;;;;;;;;;;5031445;28;20208;-94
2023/06/07 06:26:08;;;;;;;2.72;2.00;;;;;;;;;;5029651;28;20208;-95
2023/06/07 06:28:35;;;;;;;2.38;2.08;;;;;;;;;;5034090;28;20226;-95
2023/06/07 06:31:03;;;;;;;2.97;2.60;;;;;;;;;;5036680;28;20225;-95
2023/06/07 06:33:31;;;;;;;3.45;2.10;;;;;;;;;;5023503;28;20239;-94
2023/06/07 06:36:00;;;;;;;2.13;1.92;;;;;;;;;;5030688;28;20274;-95
2023/06/07 06:38:28;;;;;;;4.70;2.38;;;;;;;;;;5021967;28;20216;-95
2023/06/07 06:40:55;;;;;;;3.30;2.30;;;;;;;;;;5027340;28;20301;-95
2023/06/07 06:43:23;;;;;;;2.60;2.40;;;;;;;;;;5032292;28;20212;-96
2023/06/07 06:45:50;;;;;;;2.67;2.20;;;;;;;;;;5027734;28;20215;-95
2023/06/07 06:48:17;;;;;;;2.50;2.30;;;;;;;;;;5024127;28;20209;-95
2023/06/07 06:54:03;;;;;;;3.25;2.38;;;;;;;;;;4989149;28;20201;-96
2023/06/07 06:56:30;;;;;;;5.70;2.30;;;;;;;;;;5031838;28;20212;-95
2023/06/07 06:58:58;;;;;;;3.80;2.33;;;;;;;;;;5028126;28;20308;-95
2023/06/07 07:01:25;;;;;;;3.53;2.47;;;;;;;;;;5025443;28;20211;-95
2023/06/07 07:03:53;;;;;;;3.42;2.40;;;;;;;;;;5031955;28;20207;-95
2023/06/07 07:06:20;;;;;;;3.35;2.10;;;;;;;;;;5027674;28;20213;-93
2023/06/07 07:08:47;;;;;;;2.60;2.28;;;;;;;;;;5026796;28;20267;-95
2023/06/07 07:11:16;;;;;;;3.15;2.25;;;;;;;;;;5027583;28;20235;-95
2023/06/07 07:13:44;;;;;;;2.40;2.20;;;;;;;;;;5028164;28;20208;-95
2023/06/07 07:16:11;;;;;;;2.72;2.25;;;;;;;;;;5031503;28;20298;-95
2023/06/07 07:18:39;;;;;;;3.25;2.58;;;;;;;;;;5029825;28;20226;-95
2023/06/07 07:21:06;;;;;;;4.75;2.55;;;;;;;;;;5027874;28;20257;-95
2023/06/07 07:23:33;;;;;;;3.60;2.33;;;;;;;;;;5031220;28;20214;-94
2023/06/07 07:26:01;;;;;;;2.75;2.53;;;;;;;;;;5028886;28;20227;-95
2023/06/07 07:28:30;;;;;;;2.97;2.60;;;;;;;;;;5034327;28;20207;-95
2023/06/07 07:30:57;;;;;;;2.95;2.15;;;;;;;;;;5027869;28;20216;-95
2023/06/07 07:33:24;;;;;;;4.53;2.40;;;;;;;;;;5033487;28;20208;-95
2023/06/07 07:35:52;;;;;;;2.50;2.30;;;;;;;;;;5033203;28;20234;-94
2023/06/07 07:38:19;;;;;;;3.28;2.35;;;;;;;;;;5028671;28;20230;-95
2023/06/07 07:40:47;;;;;;;7.10;3.72;;;;;;;;;;5028702;28;20291;-94
2023/06/07 07:43:15;;;;;;;7.68;4.32;;;;;;;;;;5033440;28;20203;-95
2023/06/07 07:45:43;;;;;;;5.25;3.25;;;;;;;;;;5036003;28;20246;-95
2023/06/07 07:48:11;;;;;;;5.35;2.88;;;;;;;;;;5063552;28;20211;-95
2023/06/07 07:50:40;;;;;;;6.32;3.50;;;;;;;;;;5062024;28;20189;-95
2023/06/07 07:53:07;;;;;;;3.28;2.65;;;;;;;;;;5057321;28;20188;-96
2023/06/07 07:55:36;;;;;;;3.80;2.60;;;;;;;;;;5063068;28;20184;-95
2023/06/07 07:58:03;;;;;;;3.58;2.65;;;;;;;;;;5057430;28;20195;-96
2023/06/07 08:00:30;;;;;;;3.50;2.47;;;;;;;;;;5049906;28;20289;-96
2023/06/07 08:02:59;;;;;;;4.68;2.80;;;;;;;;;;5040870;28;20219;-95
2023/06/07 08:05:27;;;;;;;10.35;5.00;;;;;;;;;;5047597;28;20203;-96
2023/06/07 08:07:54;;;;;;;7.20;4.40;;;;;;;;;;5046310;28;20294;-95
2023/06/07 08:10:22;;;;;;;6.45;3.45;;;;;;;;;;5037731;28;20246;-95
2023/06/07 08:12:49;;;;;;;4.32;2.72;;;;;;;;;;5031156;28;20212;-96
2023/06/07 08:15:16;;;;;;;5.80;2.78;;;;;;;;;;5031370;28;20232;-96
2023/06/07 08:17:44;;;;;;;3.47;2.78;;;;;;;;;;5033717;28;20212;-95
2023/06/07 08:20:13;;;;;;;3.92;2.70;;;;;;;;;;5026383;28;20224;-95
2023/06/07 08:22:40;;;;;;;3.10;2.80;;;;;;;;;;5031384;28;20230;-95
2023/06/07 08:25:10;;;;;;;3.00;2.72;;;;;;;;;;5032872;28;20254;-95
2023/06/07 08:27:37;;;;;;;4.22;2.88;;;;;;;;;;5030990;28;20242;-96
2023/06/07 08:30:06;;;;;;;3.45;2.50;;;;;;;;;;5024468;28;20335;-95
2023/06/07 08:32:33;;;;;;;3.95;2.83;;;;;;;;;;5029180;28;20211;-95
2023/06/07 08:35:00;;;;;;;4.25;3.00;;;;;;;;;;5020367;28;20220;-95
2023/06/07 08:37:29;;;;;;;4.28;2.90;;;;;;;;;;5021613;28;20235;-95
2023/06/07 08:39:57;;;;;;;5.63;2.90;;;;;;;;;;5026699;28;20224;-95
2023/06/07 08:42:25;;;;;;;6.40;2.83;;;;;;;;;;5033691;28;20303;-95
2023/06/07 08:44:52;;;;;;;5.85;3.28;;;;;;;;;;5029187;28;20208;-95
2023/06/07 08:47:21;;;;;;;4.35;2.83;;;;;;;;;;5033092;28;20255;-95
2023/06/07 08:49:50;;;;;;;3.70;3.40;;;;;;;;;;5030686;28;20204;-95
2023/06/07 08:52:18;;;;;;;7.25;3.67;;;;;;;;;;5028159;28;20200;-95
2023/06/07 08:54:49;;;;;;;4.43;3.35;;;;;;;;;;5031283;28;20200;-95
2023/06/07 08:57:17;;;;;;;6.40;3.63;;;;;;;;;;5028781;28;20211;-94
2023/06/07 08:59:46;;;;;;;6.72;3.70;;;;;;;;;;5021992;28;20226;-95
2023/06/07 09:02:13;;;;;;;4.97;3.30;;;;;;;;;;5022494;28;20212;-96
2023/06/07 09:04:41;;;;;;;3.35;3.05;;;;;;;;;;5029588;28;20213;-95
2023/06/07 09:07:08;;;;;;;5.53;3.17;;;;;;;;;;5030424;28;20258;-96
2023/06/07 09:09:36;;;;;;;3.03;2.58;;;;;;;;;;5032723;28;20246;-95
2023/06/07 09:12:06;;;;;;;2.63;2.42;;;;;;;;;;5032477;28;20266;-95
2023/06/07 09:14:34;;;;;;;3.72;3.00;;;;;;;;;;5033205;28;20215;-95
2023/06/07 09:17:02;;;;;;;2.83;2.53;;;;;;;;;;5027687;28;20215;-95
2023/06/07 09:19:36;;;;;;;3.97;2.50;;;;;;;;;;5030323;28;20228;-95
2023/06/07 09:22:04;;;;;;;2.90;2.70;;;;;;;;;;5032458;28;20208;-95
2023/06/07 09:24:32;;;;;;;3.08;2.53;;;;;;;;;;5039877;28;20224;-95
2023/06/07 09:27:00;;;;;;;5.20;2.88;;;;;;;;;;5031335;28;20208;-95
2023/06/07 09:29:29;;;;;;;5.25;3.00;;;;;;;;;;5040658;28;20212;-95
2023/06/07 09:31:59;;;;;;;4.10;3.00;;;;;;;;;;5032231;28;20207;-95
2023/06/07 09:34:27;;;;;;;2.92;2.60;;;;;;;;;;5042693;28;20216;-95
2023/06/07 09:36:56;;;;;;;4.95;3.25;;;;;;;;;;5033942;28;20250;-95
2023/06/07 09:39:24;;;;;;;5.60;2.85;;;;;;;;;;5035694;28;20218;-95
2023/06/07 09:41:52;;;;;;;3.40;2.65;;;;;;;;;;5042278;28;20200;-95
2023/06/07 09:44:23;;;;;;;3.50;2.85;;;;;;;;;;5036377;28;20204;-95
2023/06/07 09:46:52;;;;;;;4.80;2.95;;;;;;;;;;5035280;28;20274;-95
2023/06/07 09:49:28;;;;;;;5.30;2.90;;;;;;;;;;5042506;28;20239;-95
2023/06/07 09:51:55;;;;;;;3.70;2.97;;;;;;;;;;5032289;28;20253;-95
2023/06/07 09:54:37;;;;;;;3.33;2.78;;;;;;;;;;5037162;28;20216;-95
2023/06/07 09:57:07;;;;;;;5.00;3.17;;;;;;;;;;5033804;28;20208;-95
2023/06/07 09:59:35;;;;;;;3.53;3.13;;;;;;;;;;5031831;28;20246;-94
2023/06/07 10:02:04;;;;;;;3.65;2.92;;;;;;;;;;5033436;28;20227;-95
2023/06/07 10:04:32;;;;;;;4.70;3.08;;;;;;;;;;5033606;28;20258;-96
2023/06/07 10:07:01;;;;;;;5.70;3.55;;;;;;;;;;5029372;28;20200;-95
2023/06/07 10:09:38;;;;;;;4.35;3.10;;;;;;;;;;5031551;28;20244;-94
2023/06/07 10:12:07;;;;;;;3.38;3.00;;;;;;;;;;5033385;28;20196;-95
2023/06/07 10:14:36;;;;;;;3.45;3.15;;;;;;;;;;5040418;28;20215;-94
2023/06/07 10:17:06;;;;;;;3.65;3.10;;;;;;;;;;5035086;28;20208;-96
2023/06/07 10:19:37;;;;;;;6.05;3.50;;;;;;;;;;5035522;28;20212;-95
2023/06/07 10:22:07;;;;;;;3.90;3.20;;;;;;;;;;5028155;28;20212;-95
2023/06/07 10:24:38;;;;;;;5.32;2.80;;;;;;;;;;5033118;28;20216;-95
2023/06/07 10:27:15;;;;;;;6.40;3.22;;;;;;;;;;5027196;28;20195;-95
2023/06/07 10:29:43;;;;;;;5.05;3.17;;;;;;;;;;5029522;28;20231;-95
2023/06/07 10:32:15;;;;;;;4.78;3.20;;;;;;;;;;5032484;28;20220;-96
2023/06/07 10:34:43;;;;;;;4.93;2.90;;;;;;;;;;5035267;28;20260;-96
2023/06/07 10:37:11;;;;;;;4.25;3.63;;;;;;;;;;5029770;28;20299;-95
2023/06/07 10:39:39;;;;;;;3.78;3.00;;;;;;;;;;5026823;28;20205;-95
2023/06/07 10:42:08;;;;;;;3.47;3.17;;;;;;;;;;5030013;28;20212;-96
2023/06/07 10:44:38;;;;;;;6.35;3.60;;;;;;;;;;5027738;28;20207;-95
2023/06/07 10:47:24;;;;;;;3.50;3.20;;;;;;;;;;5026301;28;20208;-94
2023/06/07 10:49:53;;;;;;;4.05;3.00;;;;;;;;;;5024994;28;20234;-96
2023/06/07 10:52:21;;;;;;;3.83;3.00;;;;;;;;;;5029786;28;20208;-96
2023/06/07 10:54:51;;;;;;;5.38;3.30;;;;;;;;;;5030605;28;20286;-96
2023/06/07 10:57:33;;;;;;;3.85;3.17;;;;;;;;;;5033568;28;20206;-96
2023/06/07 11:00:19;;;;;;;3.17;2.80;;;;;;;;;;5028167;28;20307;-96
2023/06/07 11:02:49;;;;;;;5.30;3.15;;;;;;;;;;5034193;28;20204;-96
2023/06/07 11:05:23;;;;;;;3.33;3.03;;;;;;;;;;5035372;28;20205;-96
2023/06/07 11:08:10;;;;;;;4.90;3.38;;;;;;;;;;5031832;28;20239;-95
2023/06/07 11:10:40;;;;;;;4.22;3.03;;;;;;;;;;5023610;28;20204;-95
2023/06/07 11:13:09;;;;;;;4.05;3.50;;;;;;;;;;5029712;28;20200;-95
2023/06/07 11:15:37;;;;;;;4.85;3.35;;;;;;;;;;5031547;28;20200;-94
2023/06/07 11:18:07;;;;;;;6.30;3.70;;;;;;;;;;5062051;22;20250;-93
2023/06/07 11:20:53;;;;;;;4.28;3.40;;;;;;;;;;5068185;28;20312;-94
2023/06/07 11:23:28;;;;;;;4.20;3.45;;;;;;;;;;5055759;28;20281;-93
2023/06/07 11:25:57;;;;;;;4.38;3.60;;;;;;;;;;5077786;28;20206;-92
2023/06/07 11:28:26;;;;;;;4.47;3.58;;;;;;;;;;5075958;28;20207;-93
2023/06/07 11:30:54;;;;;;;3.95;3.60;;;;;;;;;;5074793;28;20199;-93
2023/06/07 11:33:22;;;;;;;3.25;2.80;;;;;;;;;;5076137;28;20214;-94
2023/06/07 11:35:50;;;;;;;8.50;3.67;;;;;;;;;;5057945;28;20218;-92
2023/06/07 11:38:20;;;;;;;3.75;3.30;;;;;;;;;;5057537;28;20200;-94
2023/06/07 11:40:48;;;;;;;4.72;3.15;;;;;;;;;;5074371;28;20223;-93
2023/06/07 11:43:15;;;;;;;4.32;3.80;;;;;;;;;;5072084;28;20214;-93
2023/06/07 11:45:43;;;;;;;4.32;4.03;;;;;;;;;;5061611;28;20256;-93
2023/06/07 11:48:12;;;;;;;4.50;4.10;;;;;;;;;;5055170;28;20194;-94
2023/06/07 11:50:41;;;;;;;4.32;3.90;;;;;;;;;;5077024;28;20199;-93
2023/06/07 11:53:09;;;;;;;6.05;4.38;;;;;;;;;;5075555;28;20210;-95
2023/06/07 11:55:40;;;;;;;5.00;4.40;;;;;;;;;;5060962;28;20285;-93
2023/06/07 11:58:08;;;;;;;4.10;3.80;;;;;;;;;;5076586;28;20231;-95
2023/06/07 12:00:37;;;;;;;4.90;4.03;;;;;;;;;;5072733;28;20218;-90
2023/06/07 12:03:05;;;;;;;4.55;4.13;;;;;;;;;;5069144;28;20221;-90
2023/06/07 12:05:34;;;;;;;4.13;3.83;;;;;;;;;;5067847;28;20203;-92
2023/06/07 12:08:03;;;;;;;6.05;4.10;;;;;;;;;;5075350;28;20252;-93
2023/06/07 12:10:31;;;;;;;4.35;3.80;;;;;;;;;;5076404;28;20198;-93
2023/06/07 12:13:13;;;;;;;4.40;3.90;;;;;;;;;;5083725;28;20206;-92
2023/06/07 12:15:44;;;;;;;4.45;4.05;;;;;;;;;;5073703;28;20209;-92
2023/06/07 12:18:13;;;;;;;4.20;3.90;;;;;;;;;;5063556;28;20238;-96
2023/06/07 12:20:41;;;;;;;4.60;4.20;;;;;;;;;;5076576;28;20213;-93
2023/06/07 12:23:08;;;;;;;4.60;3.80;;;;;;;;;;5069803;28;20214;-96
2023/06/07 12:25:36;;;;;;;4.20;3.80;;;;;;;;;;5075885;28;20266;-93
2023/06/07 12:28:07;;;;;;;4.38;3.97;;;;;;;;;;5077611;28;20285;-96
2023/06/07 12:30:37;;;;;;;5.32;3.70;;;;;;;;;;5077499;28;20198;-96
2023/06/07 12:33:04;;;;;;;4.35;3.95;;;;;;;;;;5071321;28;20201;-96
2023/06/07 12:35:39;;;;;;;4.82;4.25;;;;;;;;;;5069210;28;20204;-96
2023/06/07 12:38:07;;;;;;;4.57;4.18;;;;;;;;;;5078006;28;20265;-96
2023/06/07 12:40:35;;;;;;;4.55;3.40;;;;;;;;;;5064751;28;20234;-96
2023/06/07 12:43:02;;;;;;;4.43;3.70;;;;;;;;;;5064798;28;20207;-96
2023/06/07 12:45:29;;;;;;;5.57;3.80;;;;;;;;;;5076130;28;20234;-96
2023/06/07 12:47:58;;;;;;;7.78;3.85;;;;;;;;;;5069968;28;20229;-96
2023/06/07 12:50:25;;;;;;;4.38;3.97;;;;;;;;;;5077095;28;20195;-95
2023/06/07 12:52:53;;;;;;;5.03;3.80;;;;;;;;;;5057480;28;20212;-96
2023/06/07 12:55:20;;;;;;;4.07;3.65;;;;;;;;;;5069623;28;20207;-91
2023/06/07 12:57:48;;;;;;;4.40;3.83;;;;;;;;;;5069234;28;20203;-91
2023/06/07 13:00:16;;;;;;;4.28;3.50;;;;;;;;;;5056677;28;20289;-96
2023/06/07 13:02:43;;;;;;;4.10;3.70;;;;;;;;;;5069115;28;20195;-96
2023/06/07 13:05:13;;;;;;;3.92;3.47;;;;;;;;;;5068215;28;20207;-96
2023/06/07 13:07:40;;;;;;;4.72;3.30;;;;;;;;;;5073687;28;20210;-96
2023/06/07 13:10:08;;;;;;;5.15;3.60;;;;;;;;;;5060601;28;20278;-96
2023/06/07 13:12:36;;;;;;;3.70;3.40;;;;;;;;;;5068838;28;20207;-93
2023/06/07 13:15:04;;;;;;;4.88;3.95;;;;;;;;;;5068909;28;20215;-96
2023/06/07 13:17:32;;;;;;;3.60;3.30;;;;;;;;;;5066582;28;20199;-95
2023/06/07 13:19:59;;;;;;;5.78;3.80;;;;;;;;;;5067057;28;20262;-96
2023/06/07 13:22:31;;;;;;;4.00;3.33;;;;;;;;;;5076749;28;20230;-95
2023/06/07 13:24:58;;;;;;;5.70;3.72;;;;;;;;;;5068154;28;20294;-95
2023/06/07 13:27:26;;;;;;;5.22;4.00;;;;;;;;;;5064855;28;20266;-96
2023/06/07 13:29:55;;;;;;;4.70;3.42;;;;;;;;;;5056980;28;20229;-95
2023/06/07 13:32:22;;;;;;;4.85;3.70;;;;;;;;;;5069576;28;20221;-95
2023/06/07 13:34:50;;;;;;;4.25;3.15;;;;;;;;;;5063842;28;20218;-96
2023/06/07 13:37:17;;;;;;;3.70;3.40;;;;;;;;;;5061311;28;20274;-95
2023/06/07 13:39:46;;;;;;;3.95;3.45;;;;;;;;;;5066043;28;20225;-93
2023/06/07 13:42:13;;;;;;;3.95;3.55;;;;;;;;;;5062964;28;20231;-96
2023/06/07 13:44:41;;;;;;;4.22;3.70;;;;;;;;;;5073041;28;20218;-95
2023/06/07 13:47:09;;;;;;;4.32;3.50;;;;;;;;;;5059304;28;20230;-96
2023/06/07 13:49:37;;;;;;;3.58;3.28;;;;;;;;;;5066754;28;20290;-96
2023/06/07 13:52:05;;;;;;;4.80;3.45;;;;;;;;;;5068494;28;20286;-96
2023/06/07 13:54:33;;;;;;;4.22;3.67;;;;;;;;;;5069082;28;20206;-96
2023/06/07 13:57:02;;;;;;;3.60;3.30;;;;;;;;;;5058415;28;20272;-94
2023/06/07 13:59:30;;;;;;;8.43;4.15;;;;;;;;;;5064596;28;20211;-96
2023/06/07 14:01:57;;;;;;;3.70;3.40;;;;;;;;;;5056863;28;20290;-96
2023/06/07 14:04:25;;;;;;;7.10;3.65;;;;;;;;;;5063958;28;20210;-96
2023/06/07 14:06:52;;;;;;;4.45;3.35;;;;;;;;;;5068658;28;20207;-95
2023/06/07 14:09:20;;;;;;;3.85;3.42;;;;;;;;;;5074877;28;20207;-96
2023/06/07 14:11:48;;;;;;;3.40;3.15;;;;;;;;;;5053434;28;20222;-96
2023/06/07 14:14:17;;;;;;;4.07;3.13;;;;;;;;;;5067207;28;20212;-96
2023/06/07 14:16:44;;;;;;;7.75;3.58;;;;;;;;;;5064945;28;20243;-96
2023/06/07 14:19:12;;;;;;;3.50;3.20;;;;;;;;;;5071132;28;20230;-95
2023/06/07 14:21:40;;;;;;;3.85;3.08;;;;;;;;;;5061728;28;20222;-94
2023/06/07 14:24:07;;;;;;;4.03;3.30;;;;;;;;;;5068328;28;20238;-95
2023/06/07 14:26:34;;;;;;;6.30;3.72;;;;;;;;;;5059438;28;20217;-96
2023/06/07 14:29:02;;;;;;;4.30;3.28;;;;;;;;;;5054132;28;20292;-94
2023/06/07 14:31:32;;;;;;;4.05;3.58;;;;;;;;;;5075256;28;20302;-94
2023/06/07 14:34:00;;;;;;;5.60;3.20;;;;;;;;;;5062484;28;20211;-96
2023/06/07 14:36:27;;;;;;;3.75;3.10;;;;;;;;;;5063483;28;20211;-96
2023/06/07 14:38:54;;;;;;;3.42;3.13;;;;;;;;;;5067967;28;20294;-96
2023/06/07 14:41:21;;;;;;;3.95;3.20;;;;;;;;;;5046634;28;20262;-96
2023/06/07 14:43:49;;;;;;;4.95;3.40;;;;;;;;;;5067362;28;20203;-95
2023/06/07 14:46:17;;;;;;;3.03;2.83;;;;;;;;;;5048127;28;20203;-94
2023/06/07 14:48:46;;;;;;;4.30;2.90;;;;;;;;;;5064056;28;20271;-95
2023/06/07 14:51:15;;;;;;;3.92;3.05;;;;;;;;;;5064587;28;20211;-95
2023/06/07 14:53:42;;;;;;;5.45;3.22;;;;;;;;;;5068529;28;20219;-96
2023/06/07 14:56:10;;;;;;;3.22;3.03;;;;;;;;;;5062634;28;20259;-95
2023/06/07 14:58:37;;;;;;;3.63;3.00;;;;;;;;;;5074911;28;20201;-96